Time;durP1;ratioP1;P1;durP2;ratioP2;P2;SDS_P1;SDS_P2;PMS_P1;PMS_P2;Temp;Humidity;BMP_temperature;BMP_pressure;BME280_temperature;BME280_humidity;BME280_pressure;Samples;Min_cycle;Max_cycle;Signal;HPM_P1;HPM_P2
2022/06/11 00:01:05;;;;;;;4.13;2.00;;;13.40;72.70;;;;;;5053708;28;20017;-75
2022/06/11 00:03:32;;;;;;;3.45;1.80;;;13.50;72.30;;;;;;5052840;28;20029;-76
2022/06/11 00:05:58;;;;;;;2.20;1.80;;;13.50;72.00;;;;;;5053019;28;20474;-75
2022/06/11 00:08:24;;;;;;;4.75;2.20;;;13.50;72.00;;;;;;5052816;28;20036;-75
2022/06/11 00:10:49;;;;;;;6.05;2.08;;;13.50;72.20;;;;;;5052804;28;20021;-76
2022/06/11 00:13:15;;;;;;;3.60;1.90;;;13.50;72.40;;;;;;5052712;28;20493;-76
2022/06/11 00:15:42;;;;;;;5.88;2.30;;;13.50;72.60;;;;;;5052846;28;20060;-76
2022/06/11 00:18:08;;;;;;;3.97;2.20;;;13.40;72.50;;;;;;5052747;28;20029;-76
2022/06/11 00:20:33;;;;;;;4.57;2.22;;;13.50;72.70;;;;;;5052368;28;20032;-77
2022/06/11 00:22:59;;;;;;;2.92;1.95;;;13.50;72.70;;;;;;5052786;28;20104;-76
2022/06/11 00:25:25;;;;;;;3.78;2.25;;;13.50;72.70;;;;;;5052812;28;20029;-76
2022/06/11 00:27:51;;;;;;;3.83;2.05;;;13.40;72.80;;;;;;5052490;28;20035;-76
2022/06/11 00:30:19;;;;;;;4.07;1.90;;;13.30;73.10;;;;;;5052783;28;20029;-76
2022/06/11 00:32:46;;;;;;;6.03;2.33;;;13.30;73.10;;;;;;5034717;28;20044;-77
2022/06/11 00:35:13;;;;;;;5.35;2.53;;;13.20;73.30;;;;;;5052707;28;20025;-76
2022/06/11 00:37:39;;;;;;;3.65;2.15;;;13.30;73.30;;;;;;5052262;28;20076;-77
2022/06/11 00:40:06;;;;;;;6.55;2.30;;;13.20;73.40;;;;;;5052586;28;20040;-76
2022/06/11 00:42:34;;;;;;;3.95;1.98;;;13.20;73.50;;;;;;5052618;28;20021;-76
2022/06/11 00:45:12;;;;;;;6.13;2.50;;;13.20;73.50;;;;;;5052583;28;20138;-76
2022/06/11 00:47:38;;;;;;;3.50;2.13;;;13.20;73.50;;;;;;5052584;28;20108;-76
2022/06/11 00:50:22;;;;;;;8.20;2.47;;;13.10;73.60;;;;;;5052413;28;20037;-76
2022/06/11 00:52:48;;;;;;;5.03;2.03;;;13.10;74.10;;;;;;5054257;28;20025;-76
2022/06/11 00:55:24;;;;;;;4.95;2.05;;;13.10;75.00;;;;;;5056222;28;20473;-76
2022/06/11 00:58:03;;;;;;;4.50;2.25;;;13.00;74.10;;;;;;5056779;28;20061;-76
2022/06/11 01:00:41;;;;;;;3.80;2.28;;;13.10;74.20;;;;;;5056325;28;20100;-76
2022/06/11 01:03:09;;;;;;;3.22;2.17;;;13.10;74.10;;;;;;5056134;28;20033;-76
2022/06/11 01:05:37;;;;;;;3.67;2.15;;;13.10;74.10;;;;;;5055898;28;20040;-76
2022/06/11 01:08:36;;;;;;;5.05;2.30;;;13.10;74.20;;;;;;5056149;28;20033;-77
2022/06/11 01:11:20;;;;;;;5.85;2.20;;;13.10;74.20;;;;;;5056123;28;20017;-76
2022/06/11 01:14:10;;;;;;;6.95;2.33;;;13.00;74.60;;;;;;5056039;28;20076;-76
2022/06/11 01:17:13;;;;;;;5.25;2.55;;;12.90;74.90;;;;;;5056070;28;20032;-76
2022/06/11 01:20:06;;;;;;;4.00;2.22;;;12.90;75.20;;;;;;5055783;28;20095;-76
2022/06/11 01:22:43;;;;;;;2.28;2.00;;;12.90;75.30;;;;;;5056030;28;20064;-76
2022/06/11 01:25:23;;;;;;;6.38;2.30;;;12.90;75.20;;;;;;5055823;28;20500;-76
2022/06/11 01:28:09;;;;;;;7.47;2.28;;;12.90;75.30;;;;;;5055931;28;20013;-76
2022/06/11 01:30:44;;;;;;;4.35;2.30;;;13.00;75.20;;;;;;5055762;28;20033;-76
2022/06/11 01:33:29;;;;;;;7.38;2.30;;;13.00;75.10;;;;;;5055667;28;20032;-76
2022/06/11 01:36:18;;;;;;;5.55;2.35;;;12.90;75.20;;;;;;5055706;28;20028;-75
2022/06/11 01:38:53;;;;;;;2.28;2.08;;;12.80;75.30;;;;;;5037554;28;20067;-76
2022/06/11 01:41:24;;;;;;;5.00;2.33;;;12.90;76.20;;;;;;5055762;28;20049;-76
2022/06/11 01:43:55;;;;;;;2.65;2.03;;;12.80;75.50;;;;;;5055583;28;20025;-76
2022/06/11 01:46:26;;;;;;;7.53;2.70;;;12.80;75.70;;;;;;5055409;28;20059;-75
2022/06/11 01:49:28;;;;;;;3.92;1.92;;;12.80;75.70;;;;;;5055282;28;20049;-77
2022/06/11 01:52:24;;;;;;;6.05;2.40;;;12.80;76.00;;;;;;5055656;28;20385;-76
2022/06/11 01:55:21;;;;;;;3.92;2.40;;;12.80;75.80;;;;;;5055485;28;20036;-76
2022/06/11 01:58:15;;;;;;;6.00;2.55;;;12.80;76.00;;;;;;5055498;28;20040;-76
2022/06/11 02:01:19;;;;;;;4.10;2.30;;;12.80;76.20;;;;;;5055327;28;20021;-76
2022/06/11 02:04:03;;;;;;;3.28;2.00;;;12.80;76.30;;;;;;5055013;28;20025;-76
2022/06/11 02:06:41;;;;;;;4.97;2.75;;;12.60;76.70;;;;;;5054893;28;20036;-76
2022/06/11 02:09:27;;;;;;;5.25;2.70;;;12.60;77.00;;;;;;5054965;28;20013;-75
2022/06/11 02:12:07;;;;;;;3.42;2.25;;;12.60;77.00;;;;;;5055189;28;20125;-76
2022/06/11 02:14:44;;;;;;;3.97;2.30;;;12.60;77.00;;;;;;5054631;28;20391;-76
2022/06/11 02:17:18;;;;;;;5.65;2.58;;;12.60;77.00;;;;;;5055320;28;20427;-76
2022/06/11 02:20:10;;;;;;;3.67;2.38;;;12.60;77.00;;;;;;5055068;28;20025;-76
2022/06/11 02:22:59;;;;;;;4.47;2.40;;;12.70;76.90;;;;;;5054692;28;20100;-75
2022/06/11 02:25:30;;;;;;;3.75;2.72;;;12.60;77.10;;;;;;5054932;28;20036;-76
2022/06/11 02:28:00;;;;;;;4.40;2.72;;;12.60;77.10;;;;;;5054671;28;20029;-76
2022/06/11 02:30:28;;;;;;;4.70;2.42;;;12.50;77.30;;;;;;5054903;28;20020;-76
2022/06/11 02:32:55;;;;;;;3.78;2.40;;;12.50;77.50;;;;;;5054528;28;20560;-76
2022/06/11 02:35:54;;;;;;;4.82;2.65;;;12.50;77.60;;;;;;5054628;28;20493;-76
2022/06/11 02:38:22;;;;;;;4.70;2.50;;;12.50;77.60;;;;;;5054809;28;20023;-76
2022/06/11 02:40:53;;;;;;;6.97;2.20;;;12.50;77.90;;;;;;5054209;28;20409;-76
2022/06/11 02:43:20;;;;;;;5.32;2.35;;;12.50;77.90;;;;;;5054329;28;20527;-76
2022/06/11 02:45:46;;;;;;;4.55;2.25;;;12.50;78.00;;;;;;5054360;28;20037;-76
2022/06/11 02:48:13;;;;;;;5.55;2.50;;;12.50;77.80;;;;;;5054323;28;20024;-76
2022/06/11 02:50:40;;;;;;;2.05;1.92;;;12.60;77.60;;;;;;5053954;28;20045;-77
2022/06/11 02:53:09;;;;;;;5.70;2.10;;;12.50;77.70;;;;;;5054106;28;20547;-77
2022/06/11 02:55:37;;;;;;;5.15;2.72;;;12.40;77.80;;;;;;5054090;28;20033;-77
2022/06/11 02:58:06;;;;;;;4.00;2.08;;;12.40;77.90;;;;;;5053996;28;20029;-76
2022/06/11 03:00:37;;;;;;;5.32;2.70;;;12.50;78.30;;;;;;5053965;28;20025;-76
2022/06/11 03:03:03;;;;;;;5.07;1.92;;;12.50;78.10;;;;;;5054076;28;20021;-76
2022/06/11 03:08:50;;;;;;;4.57;2.38;;;12.40;78.10;;;;;;5054181;28;20396;-76
2022/06/11 03:11:16;;;;;;;6.15;2.35;;;12.50;78.00;;;;;;5053847;28;20025;-78
2022/06/11 03:13:41;;;;;;;3.35;2.15;;;12.50;78.20;;;;;;5053809;28;20029;-78
2022/06/11 03:16:07;;;;;;;3.55;2.28;;;12.50;78.30;;;;;;5053346;28;20032;-77
2022/06/11 03:18:33;;;;;;;4.93;2.78;;;12.50;78.10;;;;;;5053729;28;20028;-77
2022/06/11 03:20:59;;;;;;;3.45;2.50;;;12.50;78.10;;;;;;5053704;28;20052;-77
2022/06/11 03:23:26;;;;;;;2.85;2.20;;;12.50;78.10;;;;;;5053657;28;20381;-76
2022/06/11 03:25:53;;;;;;;3.92;2.60;;;12.50;78.20;;;;;;5053605;28;20047;-75
2022/06/11 03:28:25;;;;;;;3.55;2.58;;;12.50;78.20;;;;;;5053653;28;20017;-76
2022/06/11 03:30:51;;;;;;;4.72;2.78;;;12.50;78.30;;;;;;5053528;28;20371;-76
2022/06/11 03:33:18;;;;;;;7.47;4.18;;;12.40;78.30;;;;;;5035519;28;20094;-76
2022/06/11 03:35:46;;;;;;;5.40;3.40;;;12.40;78.30;;;;;;5053509;28;20060;-77
2022/06/11 03:38:12;;;;;;;7.13;3.90;;;12.50;78.30;;;;;;5053359;28;20111;-76
2022/06/11 03:40:38;;;;;;;6.97;3.65;;;12.50;78.40;;;;;;5053308;28;20111;-77
2022/06/11 03:43:04;;;;;;;5.07;3.67;;;12.40;78.40;;;;;;5053200;28;20025;-76
2022/06/11 03:45:32;;;;;;;4.32;3.05;;;12.40;78.40;;;;;;5053163;28;20127;-76
2022/06/11 03:47:58;;;;;;;8.07;5.50;;;12.40;78.40;;;;;;5052842;28;20029;-76
2022/06/11 03:50:27;;;;;;;5.50;4.15;;;12.40;78.70;;;;;;5052831;28;20056;-76
2022/06/11 03:52:54;;;;;;;9.32;5.03;;;12.40;78.80;;;;;;5055472;28;20029;-76
2022/06/11 03:55:21;;;;;;;4.43;2.88;;;12.40;78.70;;;;;;5053053;28;20029;-76
2022/06/11 03:57:47;;;;;;;3.22;2.53;;;12.40;78.70;;;;;;5053118;28;20029;-76
2022/06/11 04:01:14;;;;;;;5.95;2.67;;;12.40;78.70;;;;;;5053057;28;20167;-76
2022/06/11 04:03:03;;;;;;;4.50;2.45;;;12.50;78.70;;;;;;5052891;28;20025;-76
2022/06/11 04:05:29;;;;;;;5.15;3.15;;;12.60;78.40;;;;;;5053013;28;20017;-76
2022/06/11 04:07:55;;;;;;;4.22;2.85;;;12.60;78.30;;;;;;5052911;28;20117;-76
2022/06/11 04:10:21;;;;;;;3.70;2.35;;;12.60;78.40;;;;;;5052989;28;20025;-76
2022/06/11 04:12:46;;;;;;;5.35;2.35;;;12.60;78.30;;;;;;5052730;28;20029;-76
2022/06/11 04:15:12;;;;;;;5.15;3.03;;;12.60;78.40;;;;;;5034925;28;20031;-76
2022/06/11 04:17:38;;;;;;;4.93;2.35;;;12.60;78.30;;;;;;5052880;28;20027;-76
2022/06/11 04:20:04;;;;;;;3.22;2.88;;;12.60;78.10;;;;;;5052819;28;20040;-76
2022/06/11 04:22:29;;;;;;;3.78;2.60;;;12.70;78.10;;;;;;5052795;28;20108;-76
2022/06/11 04:24:55;;;;;;;3.35;2.55;;;12.70;78.10;;;;;;5035038;28;20064;-77
2022/06/11 04:27:22;;;;;;;3.35;2.60;;;12.70;78.10;;;;;;5054096;28;20108;-76
2022/06/11 04:29:51;;;;;;;3.03;2.08;;;12.90;77.90;;;;;;5057106;28;20025;-77
2022/06/11 04:32:17;;;;;;;4.72;2.97;;;12.90;77.60;;;;;;5057186;28;20025;-77
2022/06/11 04:34:46;;;;;;;4.75;2.38;;;13.00;77.20;;;;;;5056672;28;20052;-77
2022/06/11 04:37:13;;;;;;;3.13;2.40;;;13.10;76.90;;;;;;5056747;28;20017;-77
2022/06/11 04:39:41;;;;;;;3.13;2.50;;;13.20;76.70;;;;;;5056656;28;20474;-77
2022/06/11 04:42:09;;;;;;;5.13;2.40;;;13.20;76.40;;;;;;5056283;28;20109;-77
2022/06/11 04:44:36;;;;;;;4.38;2.55;;;13.30;76.20;;;;;;5056634;28;20059;-76
2022/06/11 04:47:01;;;;;;;7.55;2.60;;;13.40;76.00;;;;;;5056591;28;20049;-77
2022/06/11 04:49:27;;;;;;;4.88;2.70;;;13.50;75.70;;;;;;5056490;28;20072;-77
2022/06/11 04:51:53;;;;;;;5.38;2.58;;;13.50;75.50;;;;;;5056633;28;20033;-76
2022/06/11 04:54:18;;;;;;;7.28;2.67;;;13.60;75.40;;;;;;5056528;28;20092;-77
2022/06/11 04:56:44;;;;;;;4.72;2.40;;;13.60;75.10;;;;;;5056432;28;20031;-78
2022/06/11 04:59:09;;;;;;;4.05;2.40;;;13.70;74.90;;;;;;5056438;28;20056;-77
2022/06/11 05:01:36;;;;;;;3.47;2.08;;;13.80;74.60;;;;;;5038602;28;20032;-77
2022/06/11 05:04:02;;;;;;;5.80;2.55;;;13.80;74.50;;;;;;5056343;28;20053;-76
2022/06/11 05:06:32;;;;;;;2.83;2.17;;;14.00;74.20;;;;;;5056250;28;20055;-78
2022/06/11 05:08:58;;;;;;;2.60;2.22;;;14.00;74.10;;;;;;5056315;28;20021;-77
2022/06/11 05:11:24;;;;;;;2.80;2.35;;;14.10;74.00;;;;;;5056228;28;20438;-77
2022/06/11 05:13:50;;;;;;;2.58;2.30;;;14.20;73.80;;;;;;5056047;28;20112;-76
2022/06/11 05:16:18;;;;;;;6.25;2.85;;;14.30;73.80;;;;;;5056102;28;20018;-76
2022/06/11 05:18:44;;;;;;;4.90;2.65;;;14.40;73.40;;;;;;5056054;28;20495;-76
2022/06/11 05:21:09;;;;;;;3.15;2.63;;;14.50;73.10;;;;;;5055885;28;20099;-77
2022/06/11 05:23:35;;;;;;;4.85;2.30;;;14.60;72.50;;;;;;5055858;28;20088;-76
2022/06/11 05:26:01;;;;;;;5.03;2.47;;;14.80;72.20;;;;;;5055875;28;20076;-76
2022/06/11 05:28:30;;;;;;;5.13;2.22;;;14.80;71.90;;;;;;5055815;28;20053;-78
2022/06/11 05:30:56;;;;;;;6.90;2.50;;;14.90;71.70;;;;;;5055771;28;20151;-76
2022/06/11 05:33:23;;;;;;;5.25;2.78;;;15.00;71.60;;;;;;5055798;28;20033;-76
2022/06/11 05:35:50;;;;;;;4.82;2.83;;;15.10;71.50;;;;;;5055684;28;20024;-77
2022/06/11 05:38:19;;;;;;;4.40;2.13;;;15.20;71.50;;;;;;5054938;28;20075;-77
2022/06/11 05:40:48;;;;;;;4.90;2.38;;;15.30;71.30;;;;;;5037744;28;20083;-77
2022/06/11 05:43:14;;;;;;;4.10;2.40;;;15.50;71.00;;;;;;5055516;28;20025;-78
2022/06/11 05:46:02;;;;;;;4.13;1.98;;;15.60;70.60;;;;;;5055527;28;20385;-78
2022/06/11 05:48:37;;;;;;;4.72;2.70;;;15.70;70.30;;;;;;5037529;28;20061;-78
2022/06/11 05:51:05;;;;;;;3.55;2.13;;;15.80;69.80;;;;;;5055554;28;20036;-77
2022/06/11 05:53:34;;;;;;;4.20;2.63;;;16.00;69.70;;;;;;5055372;28;20043;-77
2022/06/11 05:56:01;;;;;;;3.70;2.20;;;16.10;69.30;;;;;;5037495;28;20022;-77
2022/06/11 05:58:36;;;;;;;5.68;2.30;;;16.30;69.20;;;;;;5055176;28;20521;-77
2022/06/11 06:01:03;;;;;;;5.17;2.17;;;16.40;68.70;;;;;;5055137;28;20032;-77
2022/06/11 06:03:28;;;;;;;3.53;2.30;;;16.60;68.30;;;;;;5055016;28;20268;-77
2022/06/11 06:05:54;;;;;;;2.60;2.03;;;16.70;67.70;;;;;;5037191;28;20040;-78
2022/06/11 06:08:20;;;;;;;4.45;2.40;;;16.90;66.70;;;;;;5055083;28;20021;-78
2022/06/11 06:10:47;;;;;;;6.13;2.40;;;17.00;66.10;;;;;;5054825;28;20436;-77
2022/06/11 06:15:57;;;;;;;3.60;2.10;;;17.30;65.80;;;;;;5054810;28;20044;-78
2022/06/11 06:18:22;;;;;;;2.75;2.20;;;17.50;65.70;;;;;;5054695;28;20059;-77
2022/06/11 06:20:48;;;;;;;2.53;1.80;;;17.60;65.00;;;;;;5056793;28;20405;-78
2022/06/11 06:23:14;;;;;;;2.03;1.52;;;17.60;64.70;;;;;;5054916;28;20027;-78
2022/06/11 06:25:40;;;;;;;2.67;1.50;;;17.80;64.40;;;;;;5054714;28;20112;-78
2022/06/11 06:28:06;;;;;;;5.60;1.98;;;17.90;63.40;;;;;;5036574;28;20367;-78
2022/06/11 06:30:32;;;;;;;4.43;1.90;;;18.10;63.00;;;;;;5054615;28;20077;-78
2022/06/11 06:32:57;;;;;;;8.05;2.08;;;18.20;62.30;;;;;;5054570;28;20064;-78
2022/06/11 06:35:23;;;;;;;5.68;1.88;;;18.30;62.10;;;;;;5054499;28;20504;-77
2022/06/11 06:37:48;;;;;;;3.78;1.80;;;18.50;61.80;;;;;;5054392;28;20020;-78
2022/06/11 06:40:14;;;;;;;5.75;1.77;;;18.70;61.40;;;;;;5054569;28;20486;-79
2022/06/11 06:42:40;;;;;;;6.00;1.83;;;18.80;60.70;;;;;;5054254;28;20473;-80
2022/06/11 06:45:06;;;;;;;4.55;1.52;;;18.90;59.40;;;;;;5054324;28;20473;-78
2022/06/11 06:47:31;;;;;;;3.05;1.50;;;19.10;58.70;;;;;;5054461;28;20025;-79
2022/06/11 06:49:57;;;;;;;2.80;1.35;;;19.20;58.30;;;;;;5053107;28;20048;-79
2022/06/11 06:52:23;;;;;;;2.58;1.52;;;19.40;57.90;;;;;;5054174;28;20412;-78
2022/06/11 06:54:49;;;;;;;6.07;1.98;;;19.50;57.10;;;;;;5036180;28;20061;-79
2022/06/11 06:57:14;;;;;;;2.60;1.45;;;19.70;57.30;;;;;;5053870;28;20025;-79
2022/06/11 06:59:40;;;;;;;4.35;1.40;;;19.80;56.00;;;;;;5053774;28;20036;-79
2022/06/11 07:02:06;;;;;;;4.57;2.83;;;19.90;56.10;;;;;;5035907;28;20021;-80
2022/06/11 07:04:32;;;;;;;2.53;1.65;;;20.00;55.50;;;;;;5053774;28;20048;-81
2022/06/11 07:06:57;;;;;;;3.22;1.77;;;20.10;53.30;;;;;;5035899;28;20059;-81
2022/06/11 07:09:23;;;;;;;2.40;1.20;;;20.30;51.80;;;;;;5053657;28;20075;-81
2022/06/11 07:11:49;;;;;;;5.72;1.52;;;20.30;51.30;;;;;;5053713;28;20064;-81
2022/06/11 07:14:15;;;;;;;2.47;1.40;;;20.40;50.30;;;;;;5053487;28;20041;-80
2022/06/11 07:16:47;;;;;;;2.05;1.58;;;20.40;51.10;;;;;;5053669;28;20036;-78
2022/06/11 07:19:37;;;;;;;11.35;2.15;;;20.50;52.00;;;;;;5033458;28;20413;-79
2022/06/11 07:22:18;;;;;;;21.23;3.42;;;20.50;51.50;;;;;;5039549;28;20021;-75
2022/06/11 07:24:44;;;;;;;9.90;1.63;;;20.80;57.50;;;;;;5033501;28;20490;-74
2022/06/11 07:27:15;;;;;;;6.70;1.67;;;21.00;54.10;;;;;;5015835;28;20079;-74
2022/06/11 07:30:08;;;;;;;3.20;1.58;;;21.20;53.50;;;;;;5033400;28;20037;-74
2022/06/11 07:32:35;;;;;;;3.38;1.42;;;21.40;51.70;;;;;;5033389;28;20026;-74
2022/06/11 07:35:05;;;;;;;2.47;1.30;;;21.60;51.10;;;;;;5033358;28;20109;-74
2022/06/11 07:37:35;;;;;;;2.60;1.02;;;21.70;49.40;;;;;;5033257;28;20021;-74
2022/06/11 07:40:01;;;;;;;2.05;1.10;;;21.80;46.80;;;;;;5033030;28;20453;-74
2022/06/11 07:42:26;;;;;;;3.17;1.25;;;21.90;47.80;;;;;;5032681;28;20422;-75
2022/06/11 07:44:52;;;;;;;7.07;1.17;;;22.00;47.10;;;;;;5015390;28;20076;-74
2022/06/11 07:47:53;;;;;;;3.80;1.30;;;22.10;47.30;;;;;;5033135;28;20064;-74
2022/06/11 07:50:04;;;;;;;2.72;1.20;;;22.20;46.50;;;;;;5032864;28;20050;-74
2022/06/11 07:52:29;;;;;;;2.30;1.20;;;22.30;45.60;;;;;;5033104;28;20040;-74
2022/06/11 07:54:55;;;;;;;2.58;1.10;;;22.30;46.30;;;;;;5032613;28;20042;-74
2022/06/11 07:57:21;;;;;;;4.45;1.13;;;22.40;45.20;;;;;;5032835;28;20030;-75
2022/06/11 07:59:46;;;;;;;4.05;1.40;;;22.50;43.00;;;;;;5032850;28;20044;-75
2022/06/11 08:02:12;;;;;;;1.52;1.15;;;22.50;43.00;;;;;;5032790;28;20033;-74
2022/06/11 08:04:37;;;;;;;3.72;1.05;;;22.50;43.00;;;;;;5032808;28;20126;-74
2022/06/11 08:07:03;;;;;;;3.05;1.10;;;22.70;43.00;;;;;;5032634;28;20029;-73
2022/06/11 08:09:29;;;;;;;4.78;1.20;;;22.70;42.90;;;;;;5032623;28;20017;-74
2022/06/11 08:11:55;;;;;;;1.85;1.23;;;22.80;40.90;;;;;;5032617;28;20165;-74
2022/06/11 08:14:21;;;;;;;3.53;1.10;;;22.70;40.50;;;;;;5032579;28;20040;-74
2022/06/11 08:16:46;;;;;;;2.88;1.20;;;22.80;41.00;;;;;;5032585;28;20021;-75
2022/06/11 08:19:12;;;;;;;2.65;1.33;;;22.80;39.60;;;;;;5032296;28;20030;-74
2022/06/11 08:21:37;;;;;;;1.50;1.00;;;22.80;40.40;;;;;;5032450;28;20071;-74
2022/06/11 08:24:03;;;;;;;9.20;1.63;;;22.90;40.10;;;;;;5032530;28;20068;-74
2022/06/11 08:26:29;;;;;;;4.63;1.60;;;23.10;40.20;;;;;;5031704;28;20022;-75
2022/06/11 08:28:54;;;;;;;2.50;1.15;;;23.10;39.50;;;;;;5032054;28;20038;-73
2022/06/11 08:31:20;;;;;;;4.53;1.13;;;23.10;39.20;;;;;;5032046;28;20026;-75
2022/06/11 08:33:45;;;;;;;4.07;0.93;;;23.00;38.50;;;;;;5032304;28;20026;-74
2022/06/11 08:36:11;;;;;;;3.75;1.02;;;23.00;39.70;;;;;;5014849;28;20466;-75
2022/06/11 08:38:36;;;;;;;1.48;0.82;;;23.10;38.80;;;;;;5032223;28;20493;-75
2022/06/11 08:41:08;;;;;;;1.92;0.88;;;23.20;39.00;;;;;;5032254;28;20026;-75
2022/06/11 08:43:37;;;;;;;3.22;1.05;;;23.30;38.70;;;;;;5032408;28;20096;-74
2022/06/11 08:46:12;;;;;;;4.00;1.27;;;23.40;38.40;;;;;;5031960;28;20112;-75
2022/06/11 08:49:08;;;;;;;2.83;0.90;;;23.50;37.30;;;;;;5033796;28;20061;-74
2022/06/11 08:51:43;;;;;;;3.65;1.30;;;23.70;37.60;;;;;;5049299;28;20467;-74
2022/06/11 08:54:10;;;;;;;;;;;23.70;37.80;;;;;;5045011;28;20064;-74
2022/06/11 08:56:46;;;;;;;4.95;1.38;;;23.70;37.80;;;;;;5034000;28;20280;-74
2022/06/11 08:59:34;;;;;;;;;;;23.70;37.50;;;;;;5052148;28;20025;-75
2022/06/11 09:02:20;;;;;;;3.85;1.08;;;23.70;36.60;;;;;;5052382;28;20417;-75
2022/06/11 09:04:55;;;;;;;5.85;2.65;;;23.60;36.10;;;;;;5051838;28;20070;-74
2022/06/11 09:07:50;;;;;;;1.35;1.10;;;23.60;36.90;;;;;;5051764;28;20481;-74
2022/06/11 09:10:43;;;;;;;3.15;1.27;;;23.60;37.00;;;;;;5051732;28;20029;-74
2022/06/11 09:13:57;;;;;;;2.25;1.10;;;23.60;36.60;;;;;;5052535;28;20025;-75
2022/06/11 09:16:32;;;;;;;1.80;1.30;;;23.70;37.20;;;;;;4967623;28;20043;-75
2022/06/11 09:19:03;;;;;;;2.88;1.10;;;23.80;37.50;;;;;;5037740;28;20079;-75
2022/06/11 09:21:47;;;;;;;3.97;1.25;;;23.90;36.60;;;;;;5029625;28;20430;-74
2022/06/11 09:24:43;;;;;;;2.92;1.10;;;23.90;36.20;;;;;;5043641;28;20032;-74
2022/06/11 09:27:39;;;;;;;3.10;1.10;;;23.70;36.10;;;;;;5043384;28;20446;-74
2022/06/11 09:30:25;;;;;;;5.07;1.00;;;23.50;36.10;;;;;;5054949;28;20029;-74
2022/06/11 09:33:03;;;;;;;3.10;1.27;;;23.50;35.90;;;;;;5055491;28;20021;-76
2022/06/11 09:35:56;;;;;;;2.55;1.10;;;23.40;37.40;;;;;;5037581;28;20120;-74
2022/06/11 09:38:25;;;;;;;3.55;1.95;;;23.40;36.60;;;;;;5055419;28;20025;-74
2022/06/11 09:40:56;;;;;;;4.50;1.55;;;23.50;35.90;;;;;;5051874;28;20087;-74
2022/06/11 09:43:36;;;;;;;4.82;1.27;;;23.50;36.60;;;;;;5055075;28;20025;-74
2022/06/11 09:46:16;;;;;;;2.35;0.93;;;23.60;36.50;;;;;;5055301;28;20013;-75
2022/06/11 09:48:59;;;;;;;2.92;1.15;;;23.70;36.80;;;;;;5055140;28;20039;-74
2022/06/11 09:51:49;;;;;;;2.47;1.30;;;23.80;36.60;;;;;;5054500;28;20051;-74
2022/06/11 09:54:48;;;;;;;6.05;1.80;;;24.10;37.60;;;;;;5051121;28;20044;-74
2022/06/11 09:57:56;;;;;;;2.72;1.20;;;24.30;37.30;;;;;;5054310;28;20622;-73
2022/06/11 10:00:29;;;;;;;3.60;1.27;;;24.60;35.50;;;;;;5054756;28;20071;-74
2022/06/11 10:05:55;;;;;;;2.40;1.00;;;24.80;35.50;;;;;;5033336;28;20148;-76
2022/06/11 10:08:46;;;;;;;5.88;1.02;;;24.90;34.10;;;;;;5035758;28;20041;-77
2022/06/11 10:11:22;;;;;;;4.70;1.35;;;24.80;33.90;;;;;;5016629;28;20390;-76
2022/06/11 10:14:28;;;;;;;1.98;1.08;;;24.80;34.30;;;;;;5034776;28;20033;-75
2022/06/11 10:16:49;;;;;;;4.68;1.00;;;24.70;34.30;;;;;;5038048;28;20036;-76
2022/06/11 10:19:29;;;;;;;3.38;1.17;;;24.60;36.20;;;;;;5036866;28;20037;-76
2022/06/11 10:22:05;;;;;;;2.47;1.10;;;24.50;34.20;;;;;;5035197;28;20060;-76
2022/06/11 10:24:32;;;;;;;;;;;24.50;35.00;;;;;;5034988;28;20076;-76
2022/06/11 10:27:03;;;;;;;3.47;0.98;;;24.70;34.50;;;;;;5031528;28;19983;-82
2022/06/11 10:29:41;;;;;;;3.55;0.90;;;24.70;35.40;;;;;;5052219;28;20017;-75
2022/06/11 10:32:39;;;;;;;4.03;1.15;;;24.80;34.10;;;;;;5013297;28;20026;-75
2022/06/11 10:35:15;;;;;;;3.90;1.95;;;24.80;33.70;;;;;;5002912;28;20045;-80
2022/06/11 10:37:52;;;;;;;2.03;0.93;;;24.70;34.60;;;;;;4997577;28;20026;-82
2022/06/11 10:40:35;;;;;;;2.22;0.85;;;24.90;34.30;;;;;;5014682;28;20042;-75
2022/06/11 10:43:09;;;;;;;4.32;1.55;;;24.80;34.00;;;;;;5014544;28;20041;-79
2022/06/11 10:45:35;;;;;;;7.22;1.35;;;25.00;34.10;;;;;;5014545;28;20032;-80
2022/06/11 10:48:02;;;;;;;4.95;1.15;;;25.00;33.40;;;;;;5014185;28;20034;-77
2022/06/11 10:50:36;;;;;;;4.13;1.20;;;25.10;33.80;;;;;;5031034;28;20045;-80
2022/06/11 10:53:22;;;;;;;1.23;0.70;;;25.30;34.40;;;;;;5033679;28;20682;-77
2022/06/11 10:55:55;;;;;;;2.67;0.80;;;25.60;32.50;;;;;;5033996;28;20029;-82
2022/06/11 10:58:30;;;;;;;4.45;1.20;;;25.60;32.80;;;;;;5034668;28;20097;-79
2022/06/11 11:01:06;;;;;;;2.67;0.75;;;25.60;33.80;;;;;;5053345;28;20029;-77
2022/06/11 11:03:48;;;;;;;2.83;1.10;;;25.70;33.20;;;;;;5053609;28;20025;-78
2022/06/11 11:06:32;;;;;;;2.80;0.95;;;25.80;32.60;;;;;;5053686;28;20148;-80
2022/06/11 11:09:03;;;;;;;2.05;0.70;;;26.10;33.30;;;;;;5054219;28;20351;-80
2022/06/11 11:11:46;;;;;;;1.77;0.77;;;26.30;33.10;;;;;;5035811;28;20500;-77
2022/06/11 11:14:26;;;;;;;2.28;1.08;;;26.70;32.90;;;;;;5053872;28;20029;-78
2022/06/11 11:16:53;;;;;;;2.28;0.80;;;26.90;31.40;;;;;;5053499;28;20075;-79
2022/06/11 11:19:28;;;;;;;4.00;1.00;;;27.10;32.10;;;;;;5053826;28;20062;-80
2022/06/11 11:22:04;;;;;;;2.65;0.80;;;27.20;30.70;;;;;;5053776;28;20035;-78
2022/06/11 11:24:49;;;;;;;3.80;0.88;;;27.10;30.50;;;;;;5035434;28;20025;-79
2022/06/11 11:27:25;;;;;;;5.30;1.20;;;26.70;31.10;;;;;;5053657;28;20021;-82
2022/06/11 11:29:56;;;;;;;4.00;1.02;;;26.40;32.00;;;;;;5036656;28;20391;-80
2022/06/11 11:32:48;;;;;;;3.50;1.20;;;26.10;32.50;;;;;;5053508;28;20027;-81
2022/06/11 11:35:21;;;;;;;2.63;1.02;;;26.40;32.60;;;;;;5049768;28;20124;-82
2022/06/11 11:37:56;;;;;;;2.40;1.00;;;26.70;32.60;;;;;;5053105;28;20478;-82
2022/06/11 11:41:01;;;;;;;3.55;0.98;;;26.90;30.00;;;;;;5035103;28;20032;-82
2022/06/11 11:43:40;;;;;;;3.25;0.85;;;26.70;30.90;;;;;;5051684;28;20037;-83
2022/06/11 11:46:11;;;;;;;3.90;0.90;;;26.80;31.50;;;;;;5052000;28;20036;-82
2022/06/11 11:48:42;;;;;;;0.70;0.50;;;26.90;31.00;;;;;;5053088;28;20032;-83
2022/06/11 11:51:24;;;;;;;3.45;0.77;;;27.10;30.10;;;;;;5053314;28;20060;-82
2022/06/11 11:53:59;;;;;;;1.70;0.73;;;27.40;30.00;;;;;;5053238;28;20040;-81
2022/06/11 11:56:41;;;;;;;2.65;0.60;;;27.70;29.90;;;;;;5052929;28;20049;-83
2022/06/11 11:59:17;;;;;;;4.47;0.70;;;28.00;30.50;;;;;;5053505;28;20429;-82
2022/06/11 12:01:45;;;;;;;1.88;1.08;;;28.30;28.50;;;;;;5053222;28;20025;-83
2022/06/11 12:04:16;;;;;;;2.55;1.17;;;28.40;28.80;;;;;;5053224;28;20017;-82
2022/06/11 12:06:56;;;;;;;2.58;0.88;;;28.30;28.70;;;;;;5052992;28;20019;-78
2022/06/11 12:09:47;;;;;;;2.03;0.90;;;28.10;28.30;;;;;;5051814;28;20035;-77
2022/06/11 12:12:22;;;;;;;6.85;0.77;;;28.20;28.10;;;;;;5052807;28;20025;-79
2022/06/11 12:14:51;;;;;;;3.17;0.80;;;28.30;27.20;;;;;;5052455;28;20041;-76
2022/06/11 12:17:37;;;;;;;2.50;0.90;;;28.10;26.20;;;;;;5052866;28;20032;-77
2022/06/11 12:20:23;;;;;;;3.40;1.08;;;28.00;28.20;;;;;;5052867;28;20029;-79
2022/06/11 12:23:04;;;;;;;2.58;1.00;;;27.80;27.00;;;;;;5034794;28;20382;-78
2022/06/11 12:25:40;;;;;;;4.55;1.05;;;27.70;26.70;;;;;;5034837;28;20028;-78
2022/06/11 12:28:12;;;;;;;3.53;0.90;;;27.50;28.80;;;;;;5052723;28;20018;-81
2022/06/11 12:30:37;;;;;;;4.38;0.98;;;27.80;29.50;;;;;;5052780;28;20423;-82
2022/06/11 12:33:10;;;;;;;2.13;1.02;;;28.10;28.80;;;;;;5052740;28;20079;-78
2022/06/11 12:35:41;;;;;;;2.13;0.90;;;27.90;27.90;;;;;;5052693;28;20035;-80
2022/06/11 12:38:20;;;;;;;3.63;3.05;;;28.10;29.80;;;;;;5052671;28;20556;-81
2022/06/11 12:41:02;;;;;;;12.30;3.92;;;28.00;27.40;;;;;;5052309;28;20029;-81
2022/06/11 12:43:47;;;;;;;2.60;1.02;;;28.20;28.20;;;;;;5052470;28;20025;-78
2022/06/11 12:46:49;;;;;;;5.30;1.10;;;27.90;27.90;;;;;;5052093;28;20025;-78
2022/06/11 12:49:32;;;;;;;1.30;0.90;;;27.90;26.90;;;;;;5054968;28;20049;-78
2022/06/11 12:52:28;;;;;;;3.15;0.98;;;28.10;26.80;;;;;;5056115;28;20432;-78
2022/06/11 12:55:08;;;;;;;2.75;1.20;;;28.10;27.60;;;;;;5056485;28;20029;-77
2022/06/11 12:57:42;;;;;;;2.70;1.02;;;28.30;27.20;;;;;;5038379;28;20039;-77
2022/06/11 13:00:27;;;;;;;4.65;1.00;;;28.30;26.90;;;;;;5056063;28;20508;-78
2022/06/11 13:03:11;;;;;;;3.75;0.98;;;28.30;26.50;;;;;;5056318;28;20377;-79
2022/06/11 13:06:05;;;;;;;2.80;0.95;;;28.30;26.60;;;;;;5037988;28;20024;-77
2022/06/11 13:08:31;;;;;;;3.70;0.70;;;28.20;26.00;;;;;;5056019;28;20033;-79
2022/06/11 13:11:11;;;;;;;2.28;0.88;;;28.00;27.30;;;;;;5056010;28;20024;-81
2022/06/11 13:13:55;;;;;;;4.70;1.13;;;27.50;27.50;;;;;;5055841;28;20131;-78
2022/06/11 13:16:50;;;;;;;3.70;1.00;;;27.60;27.60;;;;;;5056104;28;20028;-77
2022/06/11 13:19:31;;;;;;;15.37;1.83;;;27.80;26.00;;;;;;4984521;28;20050;-79
2022/06/11 13:22:11;;;;;;;3.90;1.08;;;27.70;26.50;;;;;;5055751;28;20039;-78
2022/06/11 13:24:51;;;;;;;2.22;0.60;;;27.80;26.50;;;;;;5055812;28;20020;-78
2022/06/11 13:28:04;;;;;;;5.55;0.95;;;27.50;27.00;;;;;;5055618;28;20025;-79
2022/06/11 13:30:45;;;;;;;2.90;1.00;;;27.60;26.10;;;;;;5038134;28;20055;-77